KJEF/JEF METAR and TAF weather

Enter ICAO airport designator
Station Type Date Time Source
KJEF METAR 2021/07/26 14:53 UTC NOAA

KJEF 261453Z 10005KT 10SM CLR 28/18 A3006 RMK AO2 SLP163 T02780178 51006


Station Type Date Time Source
KJEF Decoded METAR 2021/07/26 14:53 UTC NOAA

JEFFERSON CITY MEMORIAL AIRPORT , MO, United States (KJEF) 38-36N 92-09W 168M
Jul 26, 2021 - 10:53 AM EDT / 2021.07.26 1453 UTC
Wind: from the E (100 degrees) at 6 MPH (5 KT):0
Visibility: 10 mile(s):0
Sky conditions: clear
Temperature: 82.0 F (27.8 C)
Dew Point: 64.0 F (17.8 C)
Relative Humidity: 54%
Pressure (altimeter): 30.06 in. Hg (1017 hPa)
Pressure tendency: 0.02 inches (0.6 hPa) higher than three hours ago
ob: KJEF 261453Z 10005KT 10SM CLR 28/18 A3006 RMK AO2 SLP163 T02780178 51006
cycle: 15

Station Type Date Time Source
KJEF TAF 2021/07/26 13:28 UTC NOAA

TAF
AMD KJEF 261326Z 2613/2712 VRB03KT P6SM SKC
FM261500 08005KT P6SM SKC

Example: see airport list